Time;durP1;ratioP1;P1;durP2;ratioP2;P2;SDS_P1;SDS_P2;PMS_P1;PMS_P2;Temp;Humidity;BMP_temperature;BMP_pressure;BME280_temperature;BME280_humidity;BME280_pressure;Samples;Min_cycle;Max_cycle;Signal;HPM_P1;HPM_P2
2021/12/12 00:00:47;;;;;;;27.50;14.15;;;-1.30;99.90;;;;;;5058593;28;20136;-92
2021/12/12 00:03:31;;;;;;;27.13;14.13;;;-1.50;99.90;;;;;;5065449;28;20044;-92
2021/12/12 00:05:59;;;;;;;25.75;14.70;;;-1.70;99.90;;;;;;5070600;28;20448;-92
2021/12/12 00:08:27;;;;;;;24.60;14.23;;;-1.70;99.90;;;;;;5057860;28;20135;-93
2021/12/12 00:11:00;;;;;;;31.38;14.82;;;-1.80;99.90;;;;;;5057885;28;20487;-92
2021/12/12 00:13:48;;;;;;;27.98;13.93;;;-1.90;99.90;;;;;;5058022;28;20139;-93
2021/12/12 00:16:16;;;;;;;28.00;14.13;;;-2.00;99.90;;;;;;5057957;28;20139;-93
2021/12/12 00:18:43;;;;;;;22.35;13.75;;;-2.00;99.90;;;;;;5057576;28;20168;-93
2021/12/12 00:21:13;;;;;;;24.52;13.57;;;-2.10;99.90;;;;;;5057613;28;20056;-93
2021/12/12 00:23:40;;;;;;;23.63;13.65;;;-2.10;99.90;;;;;;5057507;28;20079;-93
2021/12/12 00:26:07;;;;;;;24.00;12.93;;;-2.20;99.90;;;;;;5057889;28;20135;-94
2021/12/12 00:28:35;;;;;;;24.80;12.73;;;-2.30;99.90;;;;;;5056809;28;20075;-93
2021/12/12 00:31:09;;;;;;;23.15;12.90;;;-2.40;99.90;;;;;;5057610;28;20127;-93
2021/12/12 00:33:39;;;;;;;28.85;14.40;;;-2.40;99.90;;;;;;5057379;28;20131;-93
2021/12/12 00:36:08;;;;;;;26.80;14.38;;;-2.50;99.90;;;;;;5057389;28;20122;-93
2021/12/12 00:38:35;;;;;;;26.15;13.63;;;-2.40;99.90;;;;;;5057474;28;20068;-93
2021/12/12 00:41:13;;;;;;;31.80;14.38;;;-2.50;99.90;;;;;;5058629;28;20131;-93
2021/12/12 00:43:48;;;;;;;26.30;14.52;;;-2.50;99.90;;;;;;5057501;28;20072;-93
2021/12/12 00:46:17;;;;;;;31.00;13.65;;;-2.60;99.90;;;;;;5057229;28;20136;-93
2021/12/12 00:48:47;;;;;;;32.25;14.68;;;-2.50;99.90;;;;;;5057242;28;20052;-93
2021/12/12 00:51:17;;;;;;;29.80;13.60;;;-2.50;99.90;;;;;;5057292;28;20076;-93
2021/12/12 00:53:45;;;;;;;34.65;14.65;;;-2.50;99.90;;;;;;5057061;28;20165;-93
2021/12/12 00:56:13;;;;;;;37.05;17.55;;;-2.50;99.90;;;;;;5057203;28;20048;-93
2021/12/12 00:58:40;;;;;;;31.70;15.52;;;-2.50;99.90;;;;;;5056743;28;20060;-93
2021/12/12 01:01:20;;;;;;;30.83;15.57;;;-2.60;99.90;;;;;;5056635;28;20148;-93
2021/12/12 01:03:52;;;;;;;32.97;14.95;;;-2.70;99.90;;;;;;5059985;28;20086;-93
2021/12/12 01:06:20;;;;;;;27.05;13.70;;;-2.70;99.90;;;;;;5057159;28;20082;-93
2021/12/12 01:08:48;;;;;;;36.25;15.55;;;-2.70;99.90;;;;;;5057010;28;20072;-93
2021/12/12 01:11:21;;;;;;;31.42;14.75;;;-2.70;99.90;;;;;;5057317;28;20086;-93
2021/12/12 01:13:49;;;;;;;31.17;14.35;;;-2.70;99.90;;;;;;5057590;28;20075;-93
2021/12/12 01:16:24;;;;;;;28.70;13.10;;;-2.80;99.90;;;;;;5057820;28;20139;-93
2021/12/12 01:18:59;;;;;;;32.30;13.57;;;-2.80;99.90;;;;;;5068723;28;20116;-93
2021/12/12 01:21:33;;;;;;;23.27;12.13;;;-2.90;99.90;;;;;;5071589;28;20080;-93
2021/12/12 01:24:08;;;;;;;33.30;14.38;;;-2.90;99.90;;;;;;5056941;28;20132;-93
2021/12/12 01:26:37;;;;;;;31.52;14.45;;;-3.00;99.90;;;;;;5056652;28;20463;-93
2021/12/12 01:29:06;;;;;;;29.70;13.77;;;-3.10;99.90;;;;;;5056540;28;20139;-93
2021/12/12 01:31:39;;;;;;;31.63;13.88;;;-3.10;99.90;;;;;;5056934;28;20492;-93
2021/12/12 01:34:12;;;;;;;;;;;-3.20;99.90;;;;;;5057399;28;20250;-94
2021/12/12 01:36:52;;;;;;;27.92;12.63;;;-3.20;99.90;;;;;;5056623;28;20003;-93
2021/12/12 01:39:23;;;;;;;34.22;13.70;;;-3.20;99.90;;;;;;5056279;28;20143;-93
2021/12/12 01:41:55;;;;;;;28.13;13.57;;;-3.30;99.90;;;;;;5056075;28;20159;-94
2021/12/12 01:44:35;;;;;;;31.20;13.77;;;-3.30;99.90;;;;;;5056553;28;20143;-94
2021/12/12 01:47:16;;;;;;;29.63;13.32;;;-3.30;99.90;;;;;;5057152;28;20540;-93
2021/12/12 01:49:48;;;;;;;30.90;12.60;;;-3.30;99.90;;;;;;5057448;28;20082;-93
2021/12/12 01:52:18;;;;;;;24.70;11.85;;;-3.40;99.90;;;;;;5056995;28;20467;-93
2021/12/12 01:54:48;;;;;;;29.27;13.32;;;-3.50;99.90;;;;;;5057056;28;20144;-93
2021/12/12 01:57:26;;;;;;;32.67;13.93;;;-3.50;99.90;;;;;;5057293;28;20059;-93
2021/12/12 01:59:56;;;;;;;28.48;13.57;;;-3.40;99.90;;;;;;5057050;28;20488;-93
2021/12/12 02:02:27;;;;;;;33.75;13.75;;;-3.40;99.90;;;;;;5057024;28;20075;-93
2021/12/12 02:04:59;;;;;;;25.55;13.50;;;-3.40;99.90;;;;;;5058992;28;20052;-93
2021/12/12 02:07:29;;;;;;;28.75;12.25;;;-3.40;99.90;;;;;;5056672;28;20044;-94
2021/12/12 02:10:00;;;;;;;23.80;11.80;;;-3.60;99.90;;;;;;5056848;28;20072;-93
2021/12/12 02:12:27;;;;;;;31.75;12.52;;;-3.60;99.90;;;;;;5056598;28;20135;-94
2021/12/12 02:14:56;;;;;;;27.25;12.65;;;-3.60;99.90;;;;;;5055933;28;20065;-93
2021/12/12 02:17:34;;;;;;;23.73;11.85;;;-3.60;99.90;;;;;;5056659;28;20467;-94
2021/12/12 02:20:19;;;;;;;24.58;12.48;;;-3.60;99.90;;;;;;5056490;28;20090;-93
2021/12/12 02:36:27;;;;;;;29.27;11.73;;;-3.80;99.90;;;;;;5093684;28;20049;-94
2021/12/12 02:38:55;;;;;;;28.42;12.48;;;-3.80;99.90;;;;;;5055583;28;20143;-93
2021/12/12 02:41:24;;;;;;;24.05;11.80;;;-3.80;99.90;;;;;;5055641;28;20119;-94
2021/12/12 02:43:58;;;;;;;24.20;11.48;;;-3.80;99.90;;;;;;5055504;28;20080;-93
2021/12/12 02:46:29;;;;;;;24.92;10.55;;;-3.80;99.90;;;;;;5055753;28;20596;-94
2021/12/12 02:49:06;;;;;;;23.92;10.85;;;-3.80;99.90;;;;;;5055680;28;20045;-94
2021/12/12 02:51:36;;;;;;;25.42;11.15;;;-3.80;99.90;;;;;;5056004;28;20095;-94
2021/12/12 02:54:04;;;;;;;22.95;12.02;;;-3.70;99.90;;;;;;5059298;28;20488;-93
2021/12/12 02:56:39;;;;;;;28.02;11.18;;;-3.80;99.90;;;;;;5059147;28;20060;-94
2021/12/12 02:59:10;;;;;;;22.77;11.68;;;-3.70;99.90;;;;;;5059313;28;20075;-94
2021/12/12 03:01:51;;;;;;;23.33;10.75;;;-3.70;99.90;;;;;;5059441;28;20139;-93
2021/12/12 03:04:19;;;;;;;21.63;11.43;;;-3.80;99.90;;;;;;5059231;28;20052;-94
2021/12/12 03:06:46;;;;;;;26.20;11.07;;;-3.90;99.90;;;;;;5058429;28;20127;-93
2021/12/12 03:09:18;;;;;;;24.92;11.38;;;-3.90;99.90;;;;;;5059089;28;20048;-93
2021/12/12 03:11:48;;;;;;;22.52;10.60;;;-3.90;99.90;;;;;;5059189;28;20131;-94
2021/12/12 03:14:17;;;;;;;23.83;11.65;;;-3.90;99.90;;;;;;5059162;28;20064;-93
2021/12/12 03:16:45;;;;;;;22.60;11.00;;;-3.90;99.90;;;;;;5058922;28;20564;-94
2021/12/12 03:19:12;;;;;;;27.75;12.50;;;-3.90;99.90;;;;;;5058713;28;20135;-93
2021/12/12 03:21:42;;;;;;;28.13;12.02;;;-3.80;99.90;;;;;;5050514;28;20092;-93
2021/12/12 03:24:14;;;;;;;24.95;12.65;;;-3.80;99.90;;;;;;5058966;28;20072;-94
2021/12/12 03:26:43;;;;;;;23.10;11.07;;;-3.80;99.90;;;;;;5059022;28;20135;-93
2021/12/12 03:29:11;;;;;;;26.63;10.45;;;-3.80;99.90;;;;;;5058661;28;20136;-94
2021/12/12 03:31:43;;;;;;;22.88;10.88;;;-3.80;99.90;;;;;;5058541;28;20129;-93
2021/12/12 03:34:18;;;;;;;27.13;11.45;;;-3.80;99.90;;;;;;5058730;28;20052;-93
2021/12/12 03:36:46;;;;;;;23.15;10.50;;;-3.80;99.90;;;;;;5058888;28;20572;-93
2021/12/12 03:39:17;;;;;;;21.75;10.23;;;-3.90;99.90;;;;;;5058611;28;20131;-93
2021/12/12 03:41:44;;;;;;;21.80;12.20;;;-3.80;99.90;;;;;;5058472;28;20135;-94
2021/12/12 03:44:23;;;;;;;23.45;11.27;;;-3.80;99.90;;;;;;5058727;28;20077;-93
2021/12/12 03:46:54;;;;;;;22.85;11.00;;;-3.80;99.90;;;;;;5058425;28;20492;-93
2021/12/12 03:49:22;;;;;;;25.10;11.63;;;-3.80;99.90;;;;;;5069511;28;20050;-94
2021/12/12 03:51:50;;;;;;;20.67;11.48;;;-3.80;99.90;;;;;;5080037;28;20055;-94
2021/12/12 03:54:18;;;;;;;22.40;11.93;;;-3.80;99.90;;;;;;5058702;28;20480;-93
2021/12/12 03:56:45;;;;;;;16.85;10.52;;;-3.90;99.90;;;;;;5058358;28;20079;-94
2021/12/12 03:59:13;;;;;;;23.92;11.30;;;-4.00;99.90;;;;;;5058296;28;20127;-94
2021/12/12 04:01:44;;;;;;;21.23;11.30;;;-4.00;99.90;;;;;;5058352;28;20052;-94
2021/12/12 04:04:19;;;;;;;25.42;11.90;;;-4.00;99.90;;;;;;5091149;28;20049;-94
2021/12/12 04:06:47;;;;;;;25.35;11.98;;;-4.00;99.90;;;;;;5058058;28;20530;-94
2021/12/12 04:09:15;;;;;;;26.33;12.18;;;-4.00;99.90;;;;;;5057990;28;20131;-94
2021/12/12 04:11:46;;;;;;;25.40;12.88;;;-3.90;99.90;;;;;;5057907;28;20500;-94
2021/12/12 04:14:14;;;;;;;20.75;11.75;;;-4.00;99.90;;;;;;5057702;28;20135;-94
2021/12/12 04:16:45;;;;;;;23.48;12.13;;;-3.90;99.90;;;;;;5057960;28;20435;-94
2021/12/12 04:19:12;;;;;;;29.05;17.23;;;-3.90;99.90;;;;;;5057656;28;20471;-94
2021/12/12 04:21:40;;;;;;;27.65;13.98;;;-3.90;99.90;;;;;;5054008;28;20120;-94
2021/12/12 04:24:08;;;;;;;21.65;11.07;;;-3.90;99.90;;;;;;5054088;28;20132;-94
2021/12/12 04:26:42;;;;;;;18.33;9.55;;;-3.80;99.90;;;;;;5057285;28;20131;-94
2021/12/12 04:29:16;;;;;;;29.52;12.90;;;-3.90;99.90;;;;;;5057681;28;20098;-94
2021/12/12 04:31:49;;;;;;;28.00;15.13;;;-3.90;99.90;;;;;;5057564;28;20465;-94
2021/12/12 04:34:28;;;;;;;29.92;14.80;;;-3.80;99.90;;;;;;5057221;28;20079;-94
2021/12/12 04:36:56;;;;;;;22.77;12.73;;;-3.80;99.90;;;;;;5057512;28;20055;-94
2021/12/12 04:39:26;;;;;;;26.73;12.90;;;-3.90;99.90;;;;;;5057245;28;20056;-94
2021/12/12 04:42:15;;;;;;;23.88;12.80;;;-3.90;99.90;;;;;;5057820;28;20044;-94
2021/12/12 04:44:45;;;;;;;24.42;12.80;;;-3.90;99.90;;;;;;5056965;28;20063;-94
2021/12/12 04:50:32;;;;;;;25.05;11.90;;;-4.00;99.90;;;;;;5074782;28;20128;-94
2021/12/12 04:53:06;;;;;;;29.13;12.80;;;-4.10;99.90;;;;;;5057103;28;20143;-94
2021/12/12 04:55:54;;;;;;;21.23;11.15;;;-4.10;99.90;;;;;;5057257;28;20072;-94
2021/12/12 04:58:36;;;;;;;23.88;12.32;;;-4.10;99.90;;;;;;5057380;28;20071;-94
2021/12/12 05:01:12;;;;;;;23.25;11.13;;;-4.10;99.90;;;;;;5057408;28;20055;-94
2021/12/12 05:03:50;;;;;;;19.70;11.00;;;-4.20;99.90;;;;;;5059274;28;20060;-94
2021/12/12 05:06:28;;;;;;;22.00;10.18;;;-4.20;99.90;;;;;;5078465;28;20040;-94
2021/12/12 05:09:09;;;;;;;22.13;11.00;;;-4.20;99.90;;;;;;5061628;28;20047;-94
2021/12/12 05:12:07;;;;;;;21.40;11.45;;;-4.20;99.90;;;;;;5056911;28;20054;-94
2021/12/12 05:14:38;;;;;;;21.52;10.38;;;-4.20;99.90;;;;;;5056681;28;20414;-94
2021/12/12 05:17:11;;;;;;;22.55;11.75;;;-4.20;99.90;;;;;;5056251;28;20147;-94
2021/12/12 05:19:51;;;;;;;21.83;11.90;;;-4.10;99.90;;;;;;5056763;28;20131;-94
2021/12/12 05:22:25;;;;;;;23.75;11.07;;;-4.00;99.90;;;;;;5054424;28;20080;-94
2021/12/12 05:24:53;;;;;;;22.00;10.80;;;-3.90;99.90;;;;;;5056689;28;20102;-94
2021/12/12 05:27:23;;;;;;;27.52;12.23;;;-3.70;99.90;;;;;;5056287;28;20384;-94
2021/12/12 05:30:03;;;;;;;31.17;14.43;;;-3.50;99.90;;;;;;5056512;28;20133;-94
2021/12/12 05:32:33;;;;;;;39.60;15.98;;;-3.40;99.90;;;;;;5056384;28;20075;-93
2021/12/12 05:35:03;;;;;;;40.15;17.05;;;-3.20;99.90;;;;;;5055906;28;20580;-93
2021/12/12 05:37:30;;;;;;;36.22;16.65;;;-3.00;99.90;;;;;;5056444;28;20599;-93
2021/12/12 05:40:01;;;;;;;38.25;16.23;;;-2.90;99.90;;;;;;5089846;28;20400;-94
2021/12/12 05:42:29;;;;;;;30.75;14.93;;;-2.70;99.90;;;;;;5056462;28;20140;-93
2021/12/12 05:44:59;;;;;;;34.50;16.25;;;-2.60;99.90;;;;;;5056300;28;20449;-94
2021/12/12 05:47:27;;;;;;;32.53;15.48;;;-2.50;99.90;;;;;;5055573;28;20083;-93
2021/12/12 05:49:54;;;;;;;41.33;16.92;;;-2.40;99.90;;;;;;5056328;28;20051;-94
2021/12/12 05:52:21;;;;;;;31.95;15.52;;;-2.40;99.90;;;;;;5089913;28;20143;-92
2021/12/12 05:54:50;;;;;;;30.67;16.15;;;-2.40;99.90;;;;;;5056252;28;20135;-93
2021/12/12 05:57:24;;;;;;;41.63;17.00;;;-2.30;99.90;;;;;;5059221;28;20093;-93
2021/12/12 05:59:53;;;;;;;30.23;14.85;;;-2.20;99.90;;;;;;5056158;28;20049;-93
2021/12/12 06:02:22;;;;;;;29.70;14.13;;;-2.20;99.90;;;;;;5056025;28;20143;-94
2021/12/12 06:04:50;;;;;;;34.42;14.27;;;-2.30;99.90;;;;;;5056157;28;20110;-92
2021/12/12 06:07:19;;;;;;;25.17;12.30;;;-2.30;99.90;;;;;;5056180;28;20144;-92
2021/12/12 06:09:48;;;;;;;19.92;11.05;;;-2.30;99.90;;;;;;5056070;28;20076;-93
2021/12/12 06:12:16;;;;;;;22.70;11.43;;;-2.30;99.90;;;;;;5055580;28;20147;-93
2021/12/12 06:14:44;;;;;;;21.40;10.95;;;-2.30;99.90;;;;;;5054958;28;20124;-93
2021/12/12 06:17:14;;;;;;;28.80;12.15;;;-2.40;99.90;;;;;;5089425;28;20493;-93
2021/12/12 06:19:42;;;;;;;19.77;11.15;;;-2.50;99.90;;;;;;5057026;28;20112;-92
2021/12/12 06:22:10;;;;;;;22.15;11.18;;;-2.50;99.90;;;;;;5074418;28;20068;-93
2021/12/12 06:24:39;;;;;;;19.20;9.20;;;-2.70;99.90;;;;;;5066946;28;20073;-94
2021/12/12 06:27:16;;;;;;;15.95;9.38;;;-2.70;99.90;;;;;;5090458;28;20136;-93
2021/12/12 06:29:46;;;;;;;17.88;9.57;;;-2.80;99.90;;;;;;5093637;28;20045;-93
2021/12/12 06:32:14;;;;;;;16.65;9.00;;;-2.90;99.90;;;;;;5093596;28;20144;-94
2021/12/12 06:34:42;;;;;;;15.02;8.98;;;-3.00;99.90;;;;;;5093382;28;20572;-94
2021/12/12 06:37:10;;;;;;;15.20;8.95;;;-3.10;99.90;;;;;;5092782;28;20070;-94
2021/12/12 06:39:42;;;;;;;14.75;8.15;;;-3.20;99.90;;;;;;5092514;28;20132;-94
2021/12/12 06:42:10;;;;;;;15.00;8.80;;;-3.10;99.90;;;;;;5092992;28;20068;-94
2021/12/12 06:44:39;;;;;;;18.48;9.02;;;-3.10;99.90;;;;;;5093355;28;20124;-93
2021/12/12 06:47:08;;;;;;;20.63;9.93;;;-3.20;99.90;;;;;;5092681;28;20068;-93
2021/12/12 06:49:37;;;;;;;21.60;9.57;;;-3.20;99.90;;;;;;5092606;28;20110;-93
2021/12/12 06:52:06;;;;;;;17.42;8.88;;;-3.20;99.90;;;;;;5092781;28;20139;-94
2021/12/12 06:54:34;;;;;;;19.92;9.18;;;-3.30;99.90;;;;;;5092629;28;20044;-93
2021/12/12 06:57:06;;;;;;;21.48;10.90;;;-3.30;99.90;;;;;;5092642;28;20072;-94
2021/12/12 06:59:35;;;;;;;19.58;9.23;;;-3.20;99.90;;;;;;5059299;28;20592;-93
2021/12/12 07:02:03;;;;;;;74.53;25.08;;;-3.10;99.90;;;;;;5092413;28;20055;-94
2021/12/12 07:04:32;;;;;;;58.25;22.42;;;-3.10;99.90;;;;;;5059105;28;20052;-93
2021/12/12 07:07:02;;;;;;;57.15;24.17;;;-3.10;99.90;;;;;;5058909;28;20064;-93
2021/12/12 07:09:33;;;;;;;56.97;22.73;;;-3.10;99.90;;;;;;5059662;28;20128;-93
2021/12/12 07:12:05;;;;;;;47.30;19.38;;;-3.00;99.90;;;;;;5059248;28;20060;-94
2021/12/12 07:14:36;;;;;;;54.35;20.17;;;-2.90;99.90;;;;;;5058915;28;20123;-94
2021/12/12 07:17:05;;;;;;;45.45;26.05;;;-2.90;99.90;;;;;;5059647;28;20052;-94
2021/12/12 07:19:33;;;;;;;43.33;21.85;;;-2.80;99.90;;;;;;5058767;28;20044;-94
2021/12/12 07:22:00;;;;;;;50.25;23.38;;;-2.70;99.90;;;;;;5059214;28;20420;-94
2021/12/12 07:24:29;;;;;;;35.78;15.20;;;-2.60;99.90;;;;;;5058647;28;20171;-94
2021/12/12 07:26:58;;;;;;;39.97;16.65;;;-2.60;99.90;;;;;;5058899;28;20140;-94
2021/12/12 07:29:27;;;;;;;34.00;14.68;;;-2.50;99.90;;;;;;5059194;28;20080;-93
2021/12/12 07:31:54;;;;;;;52.67;18.70;;;-2.50;99.90;;;;;;5058977;28;20121;-94
2021/12/12 07:34:21;;;;;;;65.25;24.15;;;-2.30;99.90;;;;;;5058551;28;20045;-94
2021/12/12 07:36:57;;;;;;;54.25;26.65;;;-2.10;99.90;;;;;;5059032;28;20115;-94
2021/12/12 07:39:26;;;;;;;45.20;22.52;;;-1.60;99.90;;;;;;5072653;28;20028;-94
2021/12/12 07:41:56;;;;;;;21.38;10.43;;;-1.00;99.90;;;;;;5066828;28;20060;-93
2021/12/12 07:44:27;;;;;;;23.33;10.63;;;-0.40;99.90;;;;;;5059105;28;20555;-93
2021/12/12 07:46:58;;;;;;;18.00;8.82;;;0.10;99.90;;;;;;5058183;28;20385;-93
2021/12/12 07:49:36;;;;;;;18.98;9.32;;;0.60;99.90;;;;;;5091074;28;20060;-93
2021/12/12 07:52:10;;;;;;;16.90;9.35;;;0.80;99.90;;;;;;5090937;28;20543;-92
2021/12/12 07:54:37;;;;;;;13.40;6.40;;;1.10;99.90;;;;;;5090813;28;20055;-93
2021/12/12 07:57:06;;;;;;;19.40;6.55;;;1.30;99.90;;;;;;5090698;28;20480;-92
2021/12/12 07:59:35;;;;;;;17.20;7.93;;;1.50;99.90;;;;;;5090730;28;20074;-94
2021/12/12 08:02:04;;;;;;;13.80;5.80;;;1.60;99.90;;;;;;5090205;28;20135;-91
2021/12/12 08:04:32;;;;;;;12.05;5.28;;;1.80;99.90;;;;;;5091091;28;20493;-94
2021/12/12 08:07:00;;;;;;;11.10;5.30;;;2.00;99.90;;;;;;5090971;28;20086;-93
2021/12/12 08:09:28;;;;;;;12.63;4.95;;;2.20;99.90;;;;;;5091706;28;20075;-93
2021/12/12 08:11:55;;;;;;;9.13;4.07;;;2.40;99.90;;;;;;5091659;28;20058;-92
2021/12/12 08:14:25;;;;;;;8.73;4.78;;;2.40;99.90;;;;;;5092010;28;20531;-92
2021/12/12 08:16:54;;;;;;;7.35;4.40;;;2.60;99.90;;;;;;5086119;28;20055;-93
2021/12/12 08:19:23;;;;;;;8.65;4.40;;;2.70;99.90;;;;;;5066506;28;20055;-93
2021/12/12 08:21:59;;;;;;;10.40;5.30;;;2.80;99.90;;;;;;5062800;28;20457;-93
2021/12/12 08:24:26;;;;;;;8.82;4.57;;;2.80;99.90;;;;;;5087606;28;20048;-94
2021/12/12 08:26:55;;;;;;;9.27;3.80;;;2.90;99.90;;;;;;5064884;28;20485;-94
2021/12/12 08:29:22;;;;;;;8.02;3.97;;;3.00;99.90;;;;;;5063235;28;20132;-94
2021/12/12 08:31:49;;;;;;;10.38;4.18;;;3.10;99.90;;;;;;5055026;28;20072;-94
2021/12/12 08:34:17;;;;;;;9.35;4.75;;;3.20;99.90;;;;;;5054373;28;20067;-95
2021/12/12 08:36:48;;;;;;;6.88;4.20;;;3.20;99.90;;;;;;5054131;28;20056;-93
2021/12/12 08:39:16;;;;;;;7.45;4.30;;;3.20;99.90;;;;;;5053914;28;20135;-93
2021/12/12 08:41:45;;;;;;;6.53;4.70;;;3.30;99.90;;;;;;5054131;28;20139;-93
2021/12/12 08:44:13;;;;;;;13.68;5.38;;;3.30;99.90;;;;;;5054370;28;20131;-93
2021/12/12 08:46:43;;;;;;;10.35;4.93;;;3.30;99.90;;;;;;5054052;28;20139;-93
2021/12/12 08:49:11;;;;;;;11.50;4.78;;;3.30;99.90;;;;;;5054095;28;20057;-93
2021/12/12 08:51:50;;;;;;;9.65;5.03;;;3.40;99.90;;;;;;5052288;28;20140;-92
2021/12/12 08:54:25;;;;;;;8.63;4.45;;;3.50;99.90;;;;;;5056814;28;20120;-93
2021/12/12 08:57:06;;;;;;;7.38;4.63;;;3.60;99.90;;;;;;5066158;28;20056;-91
2021/12/12 08:59:36;;;;;;;9.75;5.18;;;3.60;99.90;;;;;;5060572;28;20474;-93
2021/12/12 09:02:08;;;;;;;7.68;5.10;;;3.70;99.90;;;;;;5061115;28;20048;-93
2021/12/12 09:05:08;;;;;;;9.90;5.25;;;3.80;99.90;;;;;;5061667;28;20049;-92
2021/12/12 09:07:41;;;;;;;8.60;4.50;;;3.80;99.90;;;;;;5043532;28;20075;-90
2021/12/12 09:10:49;;;;;;;8.77;4.72;;;3.80;99.90;;;;;;5061636;28;20500;-92
2021/12/12 09:13:21;;;;;;;9.68;4.68;;;3.80;99.90;;;;;;5059952;28;20076;-92
2021/12/12 09:16:12;;;;;;;8.45;4.53;;;3.70;99.90;;;;;;5059500;28;20516;-91
2021/12/12 09:18:48;;;;;;;10.25;5.00;;;3.70;99.90;;;;;;5057673;28;20417;-93
2021/12/12 09:21:25;;;;;;;8.85;4.22;;;3.80;99.90;;;;;;5056957;28;20057;-90
2021/12/12 09:24:10;;;;;;;5.88;4.20;;;3.80;99.90;;;;;;5057426;28;20116;-92
2021/12/12 09:26:43;;;;;;;9.52;4.88;;;3.80;99.90;;;;;;5059065;28;20075;-92
2021/12/12 09:29:20;;;;;;;11.00;5.00;;;3.80;99.90;;;;;;5059938;28;20075;-92
2021/12/12 09:31:58;;;;;;;11.45;5.05;;;3.80;99.90;;;;;;5058630;28;20466;-92
2021/12/12 09:34:41;;;;;;;9.38;4.10;;;3.80;99.90;;;;;;5056197;28;20507;-92
2021/12/12 09:37:21;;;;;;;9.60;4.20;;;3.80;99.90;;;;;;5054193;28;20139;-92
2021/12/12 09:40:00;;;;;;;6.60;4.65;;;3.80;99.90;;;;;;5053278;28;20053;-93
2021/12/12 09:42:50;;;;;;;13.57;4.68;;;3.80;99.90;;;;;;5053370;28;20056;-93
2021/12/12 09:45:27;;;;;;;6.97;4.43;;;3.90;99.90;;;;;;5013363;28;20048;-91
2021/12/12 09:51:46;;;;;;;6.38;3.80;;;4.00;99.90;;;;;;5057893;28;20068;-91
2021/12/12 09:55:00;;;;;;;10.75;4.22;;;4.00;99.90;;;;;;5056694;28;20075;-93
2021/12/12 09:57:30;;;;;;;9.70;4.00;;;4.00;99.90;;;;;;4987960;28;20121;-91
2021/12/12 10:00:22;;;;;;;9.25;4.32;;;4.00;99.90;;;;;;5055232;28;20140;-92
2021/12/12 10:03:20;;;;;;;9.48;4.20;;;4.00;99.90;;;;;;5052435;28;20045;-92
2021/12/12 10:06:25;;;;;;;7.20;4.53;;;3.90;99.90;;;;;;5053573;28;20080;-92
2021/12/12 10:09:08;;;;;;;9.18;3.88;;;3.80;99.90;;;;;;5017466;28;20051;-94
2021/12/12 10:12:02;;;;;;;9.50;4.43;;;3.90;99.90;;;;;;5053661;28;20067;-90
2021/12/12 10:14:32;;;;;;;12.20;4.47;;;4.00;99.90;;;;;;5052648;28;20055;-91
2021/12/12 10:17:20;;;;;;;12.63;4.38;;;4.00;99.90;;;;;;5052309;28;20139;-92
2021/12/12 10:20:17;;;;;;;7.90;4.32;;;4.10;99.90;;;;;;5052810;28;20481;-90
2021/12/12 10:23:08;;;;;;;7.45;4.15;;;4.10;99.90;;;;;;5052505;28;20068;-93
2021/12/12 10:25:44;;;;;;;10.30;3.95;;;4.00;99.90;;;;;;5052950;28;20048;-93
2021/12/12 10:28:24;;;;;;;8.73;4.65;;;3.90;99.90;;;;;;5056869;28;20048;-90
2021/12/12 10:30:58;;;;;;;9.80;4.32;;;4.00;99.90;;;;;;5052913;28;20056;-94
2021/12/12 10:33:48;;;;;;;11.32;4.90;;;3.90;99.90;;;;;;5055144;28;20076;-91
2021/12/12 10:36:19;;;;;;;11.05;4.88;;;4.00;99.90;;;;;;5055334;28;20060;-91
2021/12/12 10:39:09;;;;;;;11.05;4.15;;;4.00;99.90;;;;;;5057284;28;20136;-90
2021/12/12 10:41:45;;;;;;;7.40;4.10;;;4.00;99.90;;;;;;5055603;28;20052;-90
2021/12/12 10:44:29;;;;;;;8.18;4.13;;;4.00;99.90;;;;;;5055170;28;20080;-92
2021/12/12 10:47:11;;;;;;;7.18;3.72;;;4.00;99.90;;;;;;5055416;28;20082;-91
2021/12/12 10:49:52;;;;;;;8.02;3.40;;;4.00;99.90;;;;;;5054847;28;20056;-92
2021/12/12 10:52:46;;;;;;;13.68;4.03;;;4.00;99.90;;;;;;5054713;28;20080;-88
2021/12/12 10:55:40;;;;;;;9.55;2.92;;;4.10;99.90;;;;;;5056178;28;20092;-91
2021/12/12 10:58:15;;;;;;;6.53;3.40;;;4.10;99.90;;;;;;5055411;28;20065;-90
2021/12/12 11:00:48;;;;;;;14.02;3.38;;;4.20;99.90;;;;;;5055575;28;20170;-91
2021/12/12 11:03:23;;;;;;;6.68;3.55;;;4.20;99.90;;;;;;5054188;28;20045;-91
2021/12/12 11:06:01;;;;;;;16.25;4.20;;;4.30;99.90;;;;;;5053594;28;20076;-91
2021/12/12 11:08:51;;;;;;;7.30;3.13;;;4.30;99.90;;;;;;5053622;28;20049;-91
2021/12/12 11:11:25;;;;;;;10.15;3.30;;;4.30;99.90;;;;;;5051797;28;20503;-91
2021/12/12 11:14:21;;;;;;;8.20;3.53;;;4.20;99.90;;;;;;5053501;28;20131;-90
2021/12/12 11:17:05;;;;;;;9.48;3.58;;;4.20;99.90;;;;;;5056127;28;20076;-90
2021/12/12 11:19:46;;;;;;;9.23;3.42;;;4.10;99.90;;;;;;5057424;28;20057;-91
2021/12/12 11:22:27;;;;;;;12.53;3.80;;;4.10;99.90;;;;;;5059746;28;20063;-89
2021/12/12 11:25:18;;;;;;;12.63;4.15;;;4.10;99.90;;;;;;5064434;28;20072;-91
2021/12/12 11:28:03;;;;;;;11.30;3.58;;;4.00;99.90;;;;;;5056296;28;20124;-92
2021/12/12 11:30:35;;;;;;;13.70;3.55;;;4.00;99.90;;;;;;5055898;28;20052;-90
2021/12/12 11:33:06;;;;;;;12.68;4.13;;;4.00;99.90;;;;;;5056766;28;20136;-91
2021/12/12 11:35:33;;;;;;;7.57;3.30;;;4.00;99.90;;;;;;5056492;28;20143;-91
2021/12/12 11:38:13;;;;;;;8.32;3.45;;;4.00;99.90;;;;;;5056281;28;20135;-92
2021/12/12 11:41:14;;;;;;;8.48;3.28;;;4.00;99.90;;;;;;5056188;28;20400;-88
2021/12/12 11:44:08;;;;;;;10.45;3.92;;;4.00;99.90;;;;;;5033111;28;20051;-91
2021/12/12 11:46:56;;;;;;;14.38;3.35;;;4.10;99.90;;;;;;5056249;28;20063;-91
2021/12/12 11:49:29;;;;;;;5.22;3.25;;;4.10;99.90;;;;;;5055959;28;20060;-90
2021/12/12 11:52:08;;;;;;;15.88;3.35;;;4.20;99.90;;;;;;5057524;28;20128;-90
2021/12/12 11:55:09;;;;;;;8.65;2.95;;;4.20;99.90;;;;;;5055660;28;20430;-91
2021/12/12 11:57:50;;;;;;;4.90;2.78;;;4.30;99.90;;;;;;5055127;28;20055;-90
2021/12/12 12:00:25;;;;;;;6.82;3.03;;;4.30;99.90;;;;;;5055368;28;20049;-91
2021/12/12 12:03:23;;;;;;;8.40;3.90;;;4.30;99.90;;;;;;5054231;28;20041;-91
2021/12/12 12:06:08;;;;;;;11.73;3.63;;;4.20;99.90;;;;;;5054747;28;20068;-92
2021/12/12 12:09:12;;;;;;;13.02;3.75;;;4.20;99.90;;;;;;5055819;28;20060;-90
2021/12/12 12:12:13;;;;;;;10.95;3.35;;;4.30;99.90;;;;;;5056764;28;20052;-89
2021/12/12 12:15:04;;;;;;;3.42;2.58;;;4.20;99.90;;;;;;5056413;28;20056;-90
2021/12/12 12:17:54;;;;;;;8.23;2.90;;;4.20;99.90;;;;;;5055795;28;20057;-89
2021/12/12 12:21:06;;;;;;;5.72;2.50;;;4.20;99.90;;;;;;5054616;28;20120;-89
2021/12/12 12:26:56;;;;;;;7.40;3.22;;;4.10;99.90;;;;;;5056759;28;20067;-90
2021/12/12 12:30:09;;;;;;;7.43;3.55;;;4.00;99.90;;;;;;4990831;28;20048;-92
2021/12/12 12:32:54;;;;;;;3.22;2.42;;;3.90;99.90;;;;;;5038879;28;20499;-90
2021/12/12 12:36:05;;;;;;;5.28;3.05;;;3.80;99.90;;;;;;5039359;28;20049;-89
2021/12/12 12:39:11;;;;;;;4.68;2.50;;;3.80;99.90;;;;;;5040530;28;20061;-90
2021/12/12 12:42:15;;;;;;;3.63;2.53;;;3.90;99.90;;;;;;5039742;28;20504;-91
2021/12/12 12:45:14;;;;;;;8.38;2.40;;;3.90;99.90;;;;;;5039076;28;20464;-92
2021/12/12 12:47:41;;;;;;;4.53;1.95;;;4.00;99.90;;;;;;5038058;28;20060;-89
2021/12/12 12:50:39;;;;;;;3.67;2.42;;;4.00;99.90;;;;;;5038845;28;20049;-90
2021/12/12 12:53:25;;;;;;;2.65;2.30;;;4.10;99.90;;;;;;5038185;28;20045;-91
2021/12/12 12:56:29;;;;;;;2.63;2.15;;;4.10;99.90;;;;;;5038992;28;20092;-89
2021/12/12 12:59:19;;;;;;;;;;;4.10;99.90;;;;;;5039346;28;20132;-88
2021/12/12 13:02:05;;;;;;;3.42;2.08;;;4.10;99.90;;;;;;5038987;28;19924;-91
2021/12/12 13:04:48;;;;;;;2.38;1.67;;;4.10;99.90;;;;;;5040522;28;20057;-91
2021/12/12 13:07:28;;;;;;;4.57;1.75;;;4.20;99.90;;;;;;5038166;28;20576;-90
2021/12/12 13:10:03;;;;;;;5.38;2.00;;;4.10;99.90;;;;;;5038533;28;20073;-89
2021/12/12 13:12:36;;;;;;;5.05;2.28;;;4.10;99.90;;;;;;5038351;28;20132;-89
2021/12/12 13:15:28;;;;;;;4.43;1.85;;;4.10;99.90;;;;;;5038584;28;20061;-90
2021/12/12 13:18:41;;;;;;;2.90;1.52;;;4.00;99.90;;;;;;5038236;28;20127;-90
2021/12/12 13:21:25;;;;;;;2.97;1.75;;;4.00;99.90;;;;;;5038964;28;20141;-91
2021/12/12 13:24:15;;;;;;;3.60;1.67;;;4.00;99.90;;;;;;5054257;28;20059;-90
2021/12/12 13:27:24;;;;;;;4.70;1.20;;;4.00;99.90;;;;;;5053976;28;20044;-90
2021/12/12 13:30:09;;;;;;;2.78;1.60;;;4.20;99.90;;;;;;5053763;28;20053;-90
2021/12/12 13:32:55;;;;;;;4.35;1.65;;;4.40;99.90;;;;;;5054165;28;20069;-90
2021/12/12 13:35:57;;;;;;;2.67;1.70;;;4.40;99.90;;;;;;5052858;28;20412;-89
2021/12/12 13:38:46;;;;;;;3.17;1.30;;;4.50;99.90;;;;;;5052894;28;20049;-90
2021/12/12 13:41:25;;;;;;;2.33;1.02;;;4.60;99.90;;;;;;5055338;28;20484;-89
2021/12/12 13:44:06;;;;;;;1.35;1.27;;;4.50;99.90;;;;;;5055203;28;20045;-90
2021/12/12 13:47:07;;;;;;;2.00;1.13;;;4.50;99.90;;;;;;5054566;28;20087;-90